• Join FlightAware (Why Join?)
  • Login
  • US Flag 
Trick or treat! (Boo!!) 
09:12PM EDT


 

Airport Tracker/Info


-or-


 

Live Flight TrackerFlight Track Log ✈ UAL258 ✈ 24-May-2013 ✈ KORD - KLAS

Flight Track Log - Related Links

Times and Time Zones

All times are in EDT time to prevent confusion due to time zone crossing. See the UAL258 flight status page for this flight to view local times or setup timezone preferences in your user account.

Time Position Orientation Groundspeed Altitude Reporting Facility
EDT Latitude Longitude Course Direction KTS MPH feet Rate Location/Type
09:07AM 42.0333 -87.9667 332° Northwest 197 227 3,700  Level Chicago TRACON
09:08AM 42.0833 -88.0333 315° West 245 282 5,800 2,580 Climbing Chicago TRACON
09:09AM 41.8828 -88.3180 242° Southwest  Level FlightAware Approximate
09:10AM 41.8397 -88.4515 255° West  Level FlightAware Approximate
09:10AM 42.1047 -88.1397 285° West 276 318 9,600  Level Chicago Center
09:11AM 41.8094 -88.5920 254° West  Level FlightAware Approximate
09:11AM 42.0706 -88.2411 246° West 298 343 11,200  Level Chicago Center
09:12AM 41.7783 -88.7322 253° West  Level FlightAware Approximate
09:12AM 42.0219 -88.3600 241° Southwest 355 409 13,500  Level Chicago Center
09:13AM 41.9725 -88.4783 241° Southwest 366 421 15,400 1,980 Climbing Chicago Center
09:14AM 41.9275 -88.6344 249° West 375 432 17,700 1,980 Climbing Chicago Center
09:15AM 41.8892 -88.7661 249° West 382 440 19,600 1,740 Climbing Chicago Center
09:16AM 41.8494 -88.9000 248° West 387 445 21,300 1,560 Climbing Chicago Center
09:17AM 41.8083 -89.0392 248° West 401 461 22,900 1,380 Climbing Chicago Center
09:18AM 41.7669 -89.1769 248° West 403 464 24,200 1,380 Climbing Chicago Center
09:19AM 41.7167 -89.3492 249° West 415 478 25,800 1,200 Climbing Chicago Center
09:20AM 41.6728 -89.4939 248° West 421 484 26,800 1,020 Climbing Chicago Center
09:21AM 41.6331 -89.6286 249° West 425 489 28,000 960 Climbing Chicago Center
09:22AM 41.5872 -89.7775 248° West 433 498 28,900 960 Climbing Chicago Center
09:23AM 41.5319 -89.9586 248° West 441 507 30,100 1,200 Climbing Chicago Center
09:24AM 41.4867 -90.1081 248° West 439 505 31,500 1,080 Climbing Chicago Center
09:25AM 41.4408 -90.2556 248° West 435 501 32,400 960 Climbing Chicago Center
09:26AM 41.3953 -90.4028 248° West 433 498 33,500 720 Climbing Chicago Center
09:27AM 41.3506 -90.5486 248° West 430 495 34,000 240 Climbing Chicago Center
09:28AM 41.3019 -90.7281 250° West 432 497 34,000  Level Chicago Center
09:29AM 41.2739 -90.8753 256° West 416 479 34,000  Level Chicago Center
09:30AM 41.2439 -91.0219 255° West 413 475 34,000  Level Chicago Center
09:31AM 41.2142 -91.1669 255° West 410 472 34,000  Level Chicago Center
09:32AM 41.1822 -91.3144 254° West 416 479 34,000  Level Chicago Center
09:33AM 41.1531 -91.4619 255° West 414 476 34,000  Level Chicago Center
09:34AM 41.1158 -91.6381 254° West 415 478 34,000  Level Chicago Center
09:35AM 41.0822 -91.7889 254° West 420 483 34,000  Level Chicago Center
09:37AM 41.0511 -91.9344 254° West 417 480 34,000  Level Chicago Center
09:38AM 41.0192 -92.0811 254° West 417 480 34,000  Level Chicago Center
09:39AM 40.9878 -92.2314 255° West 423 487 34,000  Level Chicago Center
09:40AM 40.9500 -92.4058 254° West 418 481 34,000  Level Chicago Center
09:41AM 40.9183 -92.5531 254° West 421 484 34,000  Level Chicago Center
09:42AM 40.8858 -92.6983 254° West 420 483 34,000  Level Chicago Center
09:43AM 40.8536 -92.8433 254° West 418 481 34,000  Level Chicago Center
09:44AM 40.8208 -92.9897 254° West 420 483 34,000  Level Chicago Center
09:45AM 40.7825 -93.1614 254° West 413 475 34,000  Level Chicago Center
09:46AM 40.7494 -93.3067 253° West 418 481 34,000  Level Chicago Center
09:47AM 40.7172 -93.4514 254° West 417 480 34,000  Level Chicago Center
09:47AM 40.7044 -93.5072 253° West 416 479 34,000  Level Minneapolis Center
09:48AM 40.6683 -93.6533 252° West 419 482 34,000  Level Minneapolis Center
09:49AM 40.6278 -93.8286 253° West 421 484 34,000  Level Minneapolis Center
09:50AM 40.5939 -93.9736 253° West 419 482 34,000  Level Minneapolis Center
09:51AM 40.5683 -94.1214 257° West 420 483 34,000  Level Minneapolis Center
09:53AM 40.5408 -94.2986 259° West 418 481 34,000  Level Minneapolis Center
09:54AM 40.5131 -94.4469 256° West 416 479 34,000  Level Minneapolis Center
09:55AM 40.4836 -94.6222 258° West 412 474 34,000  Level Minneapolis Center
09:56AM 40.4628 -94.7406 257° West 413 475 34,000  Level Minneapolis Center
09:57AM 40.4333 -94.9158 258° West 411 473 34,000  Level Minneapolis Center
09:58AM 40.4069 -95.0633 257° West 413 475 34,000  Level Minneapolis Center
09:59AM 40.3808 -95.2092 257° West 411 473 34,000  Level Minneapolis Center
10:00AM 40.3553 -95.3547 257° West 410 472 34,000  Level Minneapolis Center
10:01AM 40.3297 -95.5014 257° West 411 473 34,000  Level Minneapolis Center
10:02AM 40.3028 -95.6475 256° West 412 474 34,000  Level Minneapolis Center
10:03AM 40.2761 -95.7953 257° West 413 475 34,000  Level Minneapolis Center
10:04AM 40.2439 -95.9714 257° West 413 475 34,000  Level Minneapolis Center
10:05AM 40.2161 -96.1178 256° West 413 475 34,000  Level Minneapolis Center
10:06AM 40.1917 -96.2669 258° West 417 480 34,000  Level Minneapolis Center
10:07AM 40.1733 -96.4183 261° West 420 483 34,000  Level Minneapolis Center
10:08AM 40.1556 -96.5692 261° West 419 482 34,000  Level Minneapolis Center
10:09AM 40.1350 -96.7197 260° West 419 482 34,000  Level Minneapolis Center
10:10AM 40.1153 -96.8686 260° West 417 480 34,000  Level Minneapolis Center
10:11AM 40.0972 -97.0192 261° West 419 482 34,000  Level Minneapolis Center
10:12AM 40.0733 -97.1994 260° West 419 482 34,000  Level Minneapolis Center
10:13AM 40.0547 -97.3394 260° West 418 481 34,000  Level Minneapolis Center
10:14AM 40.0336 -97.4908 260° West 421 484 34,000  Level Minneapolis Center
10:15AM 40.0139 -97.6417 260° West 421 484 34,000  Level Minneapolis Center
10:16AM 39.9936 -97.7919 260° West 420 483 34,000  Level Minneapolis Center
10:17AM 39.9689 -97.9722 260° West 420 483 34,000  Level Minneapolis Center
10:18AM 39.9481 -98.1219 260° West 419 482 34,000  Level Minneapolis Center
10:19AM 39.9267 -98.2714 259° West 419 482 34,000  Level Minneapolis Center
10:20AM 39.9047 -98.4214 259° West 419 482 34,000  Level Minneapolis Center
10:21AM 39.8836 -98.5711 260° West 420 483 34,000  Level Minneapolis Center
10:23AM 39.8622 -98.7181 259° West 416 479 34,000  Level Minneapolis Center
10:24AM 39.8356 -98.8992 259° West 421 484 34,000  Level Minneapolis Center
10:25AM 39.8133 -99.0486 259° West 420 483 34,000  Level Denver Center
10:26AM 39.7911 -99.1975 259° West 419 482 34,000  Level Denver Center
10:27AM 39.7692 -99.3475 259° West 421 484 34,000  Level Denver Center
10:28AM 39.7467 -99.4964 259° West 421 484 34,000  Level Denver Center
10:29AM 39.7239 -99.6439 259° West 418 481 34,100  Climbing Denver Center
10:30AM 39.7006 -99.7881 258° West 410 472 34,000 -120 Descending Denver Center
10:31AM 39.6758 -99.9475 259° West 412 474 33,900 480 Descending Denver Center
10:32AM 39.6503 -100.1106 259° West 412 474 35,000 960 Climbing Denver Center
10:33AM 39.6294 -100.2456 259° West 401 461 36,000 480 Climbing Denver Center
10:34AM 39.6083 -100.3756 258° West 389 448 36,000  Level Denver Center
10:35AM 39.5825 -100.5311 258° West 395 455 36,000  Level Denver Center
10:36AM 39.5608 -100.6644 258° West 395 455 36,000  Level Denver Center
10:37AM 39.5353 -100.8167 258° West 388 447 36,000  Level Denver Center
10:38AM 39.5142 -100.9486 258° West 390 449 36,000  Level Denver Center
10:39AM 39.4844 -101.1228 258° West 388 447 36,000  Level Denver Center
10:40AM 39.4631 -101.2517 258° West 386 444 36,000  Level Denver Center
10:42AM 39.4369 -101.4017 257° West 384 442 36,000  Level Denver Center
10:43AM 39.4072 -101.5783 258° West 391 450 36,000  Level Denver Center
10:44AM 39.3836 -101.7089 257° West 390 449 36,000  Level Denver Center
10:45AM 39.3400 -101.8578 249° West 398 458 36,000  Level Denver Center
10:46AM 39.3050 -101.9767 249° West 398 458 36,000  Level Denver Center
10:47AM 39.2619 -102.1294 250° West 405 466 36,000  Level Denver Center
10:48AM 39.2244 -102.2586 249° West 404 465 36,000  Level Denver Center
10:49AM 39.1806 -102.4097 250° West 404 465 36,000  Level Denver Center
10:50AM 39.1414 -102.5383 249° West 403 464 36,000  Level Denver Center
10:51AM 39.1000 -102.6897 251° West 402 463 36,000  Level Denver Center
10:52AM 39.0756 -102.8297 257° West 395 455 36,000 -60 Level Denver Center
10:53AM 39.0531 -102.9611 258° West 394 453 35,900  Descending Denver Center
10:54AM 39.0253 -103.1125 257° West 391 450 36,000  Climbing Denver Center
10:55AM 39.0019 -103.2453 257° West 396 456 36,000  Level Denver Center
10:56AM 38.9722 -103.4000 256° West 400 460 36,000  Level Denver Center
10:57AM 38.9481 -103.5322 257° West 398 458 36,000  Level Denver Center
10:58AM 38.9197 -103.6869 257° West 399 459 36,000  Level Denver Center
10:59AM 38.8953 -103.8197 257° West 400 460 36,000  Level Denver Center
11:00AM 38.8656 -103.9769 256° West 405 466 36,000  Level Denver Center
11:01AM 38.8317 -104.1553 256° West 406 467 36,000  Level Denver Center
11:02AM 38.8061 -104.2878 256° West 404 465 36,000  Level Denver Center
11:03AM 38.7758 -104.4422 256° West 402 463 36,000  Level Denver Center
11:04AM 38.7497 -104.5764 256° West 404 465 36,000  Level Denver Center
11:06AM 38.7236 -104.7097 256° West 405 466 36,000  Level Denver Center
11:07AM 38.6936 -104.8631 256° West 401 461 36,000  Level Denver Center
11:08AM 38.6678 -104.9961 256° West 403 464 36,000  Level Denver Center
11:09AM 38.6361 -105.1528 256° West 406 467 36,000  Level Denver Center
11:10AM 38.6097 -105.2881 256° West 409 471 36,000  Level Denver Center
11:11AM 38.5778 -105.4467 256° West 412 474 36,000  Level Denver Center
11:12AM 38.5497 -105.5847 255° West 416 479 36,000  Level Denver Center
11:13AM 38.5158 -105.7467 255° West 420 483 36,100  Climbing Denver Center
11:14AM 38.4869 -105.8858 255° West 423 487 36,000 -60 Descending Denver Center
11:15AM 38.4531 -106.0492 255° West 426 490 36,000  Level Denver Center
11:16AM 38.4203 -106.1986 254° West 420 483 36,000  Level Denver Center
11:17AM 38.3911 -106.3378 255° West 409 471 36,000  Level Denver Center
11:18AM 38.3625 -106.4725 255° West 395 455 36,000  Level Denver Center
11:19AM 38.3247 -106.6478 255° West 394 453 36,000  Level Denver Center
11:20AM 38.2969 -106.7767 255° West 396 456 36,000  Level Denver Center
11:21AM 38.2633 -106.9308 255° West 393 452 36,000  Level Denver Center
11:22AM 38.2342 -107.0664 255° West 394 453 36,000  Level Denver Center
11:24AM 38.1989 -107.2272 254° West 395 455 36,000  Level Denver Center
11:25AM 38.1706 -107.3561 254° West 395 455 36,000  Level Denver Center
11:27AM 38.1083 -107.6322 254° West 392 451 36,000  Level Denver Center
11:28AM 38.0761 -107.7739 254° West 400 460 36,000  Level Denver Center
11:29AM 38.0414 -107.9283 254° West 407 468 36,000  Level Denver Center
11:30AM 38.0106 -108.0636 254° West 416 479 36,000  Level Denver Center
11:31AM 37.9753 -108.2153 254° West 407 468 36,000  Level Denver Center
11:32AM 37.9464 -108.3442 254° West 401 461 36,000  Level Denver Center
11:33AM 37.9164 -108.4733 254° West 399 459 36,000  Level Denver Center
11:34AM 37.8803 -108.6244 253° West 401 461 36,000  Level Denver Center
11:35AM 37.8506 -108.7558 254° West 405 466 36,000  Level Denver Center
11:36AM 37.8144 -108.9042 253° West 399 459 36,000  Level Denver Center
11:37AM 37.7822 -109.0342 253° West 404 465 36,000  Level Denver Center
11:38AM 37.7461 -109.1861 253° West 405 466 36,000  Level Denver Center
11:39AM 37.7131 -109.3150 252° West 403 464 36,000  Level Denver Center
11:40AM 37.6703 -109.4878 253° West 406 467 36,000 -480 Level Denver Center
11:41AM 37.6325 -109.6372 252° West 401 461 35,000 -960 Descending Denver Center
11:42AM 37.6003 -109.7664 253° West 404 465 34,100 -540 Descending Denver Center
11:43AM 37.5725 -109.8744 252° West 406 467 34,000 -60 Descending Denver Center
11:44AM 37.5294 -110.0436 252° West 399 459 34,000  Level Denver Center
11:45AM 37.4906 -110.1925 252° West 400 460 34,000  Level Denver Center
11:46AM 37.4556 -110.3275 252° West 395 455 34,000 -240 Level Denver Center
11:47AM 37.4208 -110.4606 252° West 399 459 33,600 -720 Descending Denver Center
11:49AM 37.3864 -110.5919 252° West 398 458 32,600 -780 Descending Denver Center
11:50AM 37.3511 -110.7247 252° West 401 461 32,000 -300 Descending Denver Center
11:51AM 37.3167 -110.8564 252° West 398 458 32,000  Level Denver Center
11:52AM 37.2825 -110.9892 252° West 397 457 32,000  Level Denver Center
11:53AM 37.2392 -111.1475 251° West 399 459 32,000  Level Denver Center
11:54AM 37.2033 -111.2806 251° West 403 464 32,000  Level Denver Center
11:55AM 37.1753 -111.3853 251° West 399 459 32,000  Level Denver Center
11:56AM 37.1328 -111.5422 251° West 397 457 32,000  Level Denver Center
11:57AM 37.1006 -111.6719 253° West 391 450 32,000  Level Denver Center
11:57AM 37.0883 -111.7006 242° Southwest 397 457 32,000  Level Los Angeles Center
11:58AM 37.0439 -111.8875 253° West 401 461 32,000 -480 Level Los Angeles Center
11:59AM 37.0161 -112.0231 256° West 402 463 31,100 -960 Descending Los Angeles Center
12:00PM 36.9881 -112.1608 256° West 407 468 30,100 -1,020 Descending Los Angeles Center
12:01PM 36.9597 -112.2978 256° West 407 468 29,100 -960 Descending Los Angeles Center
12:02PM 36.9306 -112.4403 256° West 419 482 28,100 -960 Descending Los Angeles Center
12:03PM 36.9017 -112.5797 256° West 416 479 27,200 -1,020 Descending Los Angeles Center
12:05PM 36.8669 -112.7439 255° West 411 473 26,000 -1,080 Descending Los Angeles Center
12:06PM 36.8392 -112.8781 256° West 406 467 25,000 -960 Descending Los Angeles Center
12:07PM 36.8106 -113.0100 255° West 401 461 24,100 -600 Descending Los Angeles Center
12:08PM 36.7739 -113.1364 250° West 392 451 23,800 -420 Descending Los Angeles Center
12:09PM 36.7397 -113.2628 251° West 387 445 23,300 -480 Descending Los Angeles Center
12:10PM 36.7119 -113.3625 251° West 385 443 22,900 -480 Descending Los Angeles Center
12:11PM 36.6697 -113.5111 251° West 379 436 22,400 -540 Descending Los Angeles Center
12:12PM 36.6289 -113.6617 251° West 382 440 21,800 -660 Descending Los Angeles Center
12:13PM 36.5936 -113.7828 250° West 374 430 21,100 -840 Descending Los Angeles Center
12:14PM 36.5600 -113.9014 251° West 366 421 20,100 -1,020 Descending Los Angeles Center
12:15PM 36.5264 -114.0200 251° West 363 418 19,100 -1,560 Descending Los Angeles Center
12:16PM 36.4936 -114.1344 250° West 357 411 16,900 -2,340 Descending Los Angeles Center
12:17PM 36.4556 -114.2717 251° West 352 405 14,300 -2,400 Descending Los Angeles Center
12:18PM 36.4389 -114.3417 254° West 343 395 13,000 -1,680 Descending Los Angeles Center
12:18PM 36.4231 -114.3828 244° Southwest 346 398 12,600 -720 Descending Los Angeles Center
12:19PM 36.4081 -114.4458 254° West 308 354 12,300 -540 Descending Los Angeles Center
12:19PM 36.3894 -114.4764 233° Southwest 313 360 12,100 -360 Descending Los Angeles Center
12:19PM 36.3567 -114.4981 208° Southwest 274 315 12,000 -120 Descending Los Angeles Center
12:20PM 36.3206 -114.4878 167° South 275 316 12,000 -660 Level Los Angeles Center
12:21PM 36.2861 -114.4819 172° South 243 280 11,300 -1,200 Descending Los Angeles Center
12:21PM 36.2567 -114.4758 170° South 241 277 10,800 -1,320 Descending Los Angeles Center
12:22PM 36.2225 -114.4875 195° South 235 270 10,000 -1,200 Descending Los Angeles Center
12:22PM 36.2028 -114.5108 224° Southwest 239 275 9,600 -1,020 Descending Los Angeles Center
12:23PM 36.1828 -114.5517 239° Southwest 236 272 9,000 -1,020 Descending Los Angeles Center
12:23PM 36.1642 -114.5742 224° Southwest 234 269 8,600 -900 Descending Los Angeles Center
12:24PM 36.1408 -114.6167 236° Southwest 231 266 8,100 -600 Descending Los Angeles Center
12:24PM 36.1192 -114.6506 232° Southwest 230 265 8,000 -120 Descending Los Angeles Center
12:25PM 36.0994 -114.6839 234° Southwest 228 262 8,000  Level Los Angeles Center
12:25PM 36.0814 -114.7122 232° Southwest 227 261 8,000 120 Level Los Angeles Center
12:26PM 36.0742 -114.7350 249° West 213 245 8,100 -540 Climbing Los Angeles Center
12:26PM 36.0731 -114.7764 268° West 210 242 7,500 -900 Descending Los Angeles Center
12:27PM 36.0772 -114.8083 279° West 203 234 7,100 -1,020 Descending Los Angeles Center
12:27PM 36.0742 -114.8417 264° West 195 224 6,500 -1,020 Descending Los Angeles Center
12:28PM 36.0744 -114.8733 271° West 192 221 6,100 -1,020 Descending Los Angeles Center